Search for airport 
image banner adimage banner adimage banner ad
image banner ad

PN85 - Brandon

Located in Prospect, United States

ICAO - PN85, IATA -

Data provided by Airmate  

General information

Coordinates: N40°52'35" W80°1'59"
Elevation is 1290 feet MSL.
Magnetic variation is -08° East
View others Airports in Pennsylvania

Operational data

Special qualification required
Current time UTC:
Current local time:
METAR: KBTP 150556Z AUTO 00000KT 10SM CLR 14/13 A2990 RMK AO2 SLP129 T01440128 10211 20139 51002 $
View NOTAMs / SUP AIP / TFR affecting this airport [VIEW]
Communications frequencies: [VIEW]

Runways:

RWY identifierQFULength (ft)Width (ft)SurfaceLDA (ft)
131400100GRASS
311400100GRASS

Airport contact information

Address: Prospect United States

Satellite view of PN85